Mission, Texas
Current Conditions -  °F | °C
As of 9:53 AM on Monday 26 Jan 2015 (Local Time) from KMFE Reporting Station
Clear Clear  
Wind Chill: 63°   Ceiling: Unl
Heat Index: 63°   Visibility: 10mi
Dew Point: 44°   Wind: 3mph
Humidity: 50%   Direction: 300°WNW
Pressure: 30.32"   Gusts: NA
Location:  26.22°N, 98.32°W
Report Text: KMFE 261553Z 30003KT 10SM CLR 17/07 A3032 RMK AO2 SLP267 T01720067
Loading
Personal Weather Stations






























Interactive Weather Map New forecast layout! Learn more

10-Day Weather Forecast

Advertisements
Track Severe Weather on mobile